createdAt,value
2019-02-24T00:02:20.056Z,36.75
2019-02-24T00:04:52.666Z,36.72
2019-02-24T00:07:24.915Z,36.34
2019-02-24T00:09:57.314Z,36.34
2019-02-24T00:12:30.360Z,37.33
2019-02-24T00:15:02.896Z,36.39
2019-02-24T00:17:34.921Z,36.59
2019-02-24T00:20:07.094Z,36.68
2019-02-24T00:22:39.327Z,36.70
2019-02-24T00:25:11.917Z,36.81
2019-02-24T00:27:44.855Z,36.73
2019-02-24T00:30:17.566Z,36.86
2019-02-24T00:32:49.859Z,36.89
2019-02-24T00:35:21.973Z,37.07
2019-02-24T00:37:54.405Z,36.59
2019-02-24T00:40:27.317Z,37.63
2019-02-24T00:42:59.913Z,35.97
2019-02-24T00:45:32.118Z,36.44
2019-02-24T00:48:04.980Z,37.16
2019-02-24T00:50:37.675Z,36.10
2019-02-24T00:53:09.832Z,37.81
2019-02-24T00:55:42.477Z,37.81
2019-02-24T00:58:16.349Z,36.58
2019-02-24T01:00:48.927Z,36.98
2019-02-24T01:03:21.164Z,36.98
2019-02-24T01:05:53.853Z,37.16
2019-02-24T01:08:26.112Z,36.56
2019-02-24T01:10:58.474Z,37.85
2019-02-24T01:13:30.861Z,37.14
2019-02-24T01:16:02.954Z,37.07
2019-02-24T01:18:35.396Z,37.04
2019-02-24T01:21:07.904Z,36.77
2019-02-24T01:23:40.336Z,37.12
2019-02-24T01:26:14.064Z,37.23
2019-02-24T01:28:46.311Z,36.84
2019-02-24T01:31:19.028Z,36.42
2019-02-24T01:33:51.324Z,37.04
2019-02-24T01:36:23.914Z,37.02
2019-02-24T01:38:56.088Z,36.81
2019-02-24T01:41:28.878Z,36.46
2019-02-24T01:44:01.016Z,36.84
2019-02-24T01:46:33.334Z,37.51
2019-02-24T01:49:05.894Z,36.74
2019-02-24T01:51:37.893Z,37.33
2019-02-24T01:54:09.905Z,37.96
2019-02-24T01:56:42.906Z,36.84
2019-02-24T01:59:14.919Z,37.14
2019-02-24T02:01:47.073Z,36.55
2019-02-24T02:04:19.853Z,37.15
2019-02-24T02:06:52.916Z,37.45
2019-02-24T02:09:24.853Z,38.05
2019-02-24T02:11:57.431Z,37.34
2019-02-24T02:14:29.870Z,36.27
2019-02-24T02:17:01.894Z,35.74
2019-02-24T02:19:34.062Z,36.59
2019-02-24T02:22:06.574Z,37.26
2019-02-24T02:24:39.319Z,37.67
2019-02-24T02:27:12.012Z,37.67
2019-02-24T02:29:44.325Z,36.83
2019-02-24T02:32:16.861Z,37.29
2019-02-24T02:34:49.296Z,37.84
2019-02-24T02:37:21.902Z,37.71
2019-02-24T02:39:54.026Z,37.07
2019-02-24T02:42:26.860Z,37.60
2019-02-24T02:44:59.588Z,37.05
2019-02-24T02:47:31.708Z,36.85
2019-02-24T02:50:02.724Z,37.51
2019-02-24T02:52:33.983Z,37.19
2019-02-24T02:55:06.915Z,37.56
2019-02-24T02:57:38.890Z,36.56
2019-02-24T03:00:36.344Z,37.45
2019-02-24T03:03:08.895Z,37.92
2019-02-24T03:05:44.550Z,37.37
2019-02-24T03:08:17.331Z,36.77
2019-02-24T03:10:50.337Z,36.76
2019-02-24T03:13:22.912Z,37.80
2019-02-24T03:15:54.947Z,37.60
2019-02-24T03:18:26.923Z,37.01
2019-02-24T03:20:59.339Z,37.19
2019-02-24T03:23:31.840Z,37.55
2019-02-24T03:26:03.929Z,37.05
2019-02-24T03:28:36.346Z,37.00
2019-02-24T03:31:08.973Z,37.84
2019-02-24T03:33:44.750Z,38.04
2019-02-24T03:36:16.121Z,37.40
2019-02-24T03:38:48.886Z,37.30
2019-02-24T03:41:20.948Z,37.50
2019-02-24T03:43:53.891Z,37.22
2019-02-24T03:46:26.895Z,37.50
2019-02-24T03:48:59.550Z,36.62
2019-02-24T03:51:31.904Z,37.02
2019-02-24T03:54:04.065Z,37.15
2019-02-24T03:56:36.327Z,37.56
2019-02-24T03:59:15.165Z,36.89
2019-02-24T04:01:43.335Z,37.21
2019-02-24T04:04:15.874Z,37.21
2019-02-24T04:06:49.041Z,36.19
2019-02-24T04:09:21.345Z,36.62
2019-02-24T04:11:53.924Z,37.60
2019-02-24T04:14:26.349Z,37.48
2019-02-24T04:16:58.855Z,37.14
2019-02-24T04:19:31.882Z,37.39
2019-02-24T04:22:03.911Z,37.01
2019-02-24T04:24:36.362Z,37.61
2019-02-24T04:27:08.872Z,36.83
2019-02-24T04:29:40.909Z,37.54
2019-02-24T04:32:13.396Z,37.05
2019-02-24T04:34:45.855Z,37.23
2019-02-24T04:37:18.455Z,37.14
2019-02-24T04:39:50.896Z,36.56
2019-02-24T04:42:22.872Z,37.08
2019-02-24T04:44:55.631Z,36.90
2019-02-24T04:47:27.800Z,36.82
2019-02-24T04:49:59.929Z,36.82
2019-02-24T04:52:32.101Z,37.89
2019-02-24T04:55:04.385Z,37.45
2019-02-24T04:57:37.091Z,36.92
2019-02-24T05:00:10.337Z,36.48
2019-02-24T05:02:42.907Z,37.55
2019-02-24T05:05:14.854Z,38.01
2019-02-24T05:07:46.938Z,37.20
2019-02-24T05:10:19.060Z,37.11
2019-02-24T05:12:51.330Z,37.33
2019-02-24T05:15:23.894Z,37.60
2019-02-24T05:17:56.080Z,36.59
2019-02-24T05:20:28.354Z,36.39
2019-02-24T05:23:00.881Z,36.98
2019-02-24T05:25:33.359Z,37.35
2019-02-24T05:28:05.915Z,37.22
2019-02-24T05:30:37.919Z,36.35
2019-02-24T05:33:09.843Z,37.39
2019-02-24T05:35:41.896Z,36.68
2019-02-24T05:38:14.336Z,37.61
2019-02-24T05:40:46.893Z,36.96
2019-02-24T05:43:18.890Z,37.63
2019-02-24T05:45:51.364Z,37.18
2019-02-24T05:48:24.101Z,37.33
2019-02-24T05:50:56.361Z,36.43
2019-02-24T05:53:28.887Z,37.57
2019-02-24T05:56:01.329Z,37.64
2019-02-24T05:58:33.832Z,36.58
2019-02-24T06:01:05.992Z,36.85
2019-02-24T06:03:38.902Z,33.67
2019-02-24T06:06:11.117Z,32.07
2019-02-24T06:08:44.011Z,29.79
2019-02-24T06:11:16.568Z,29.75
2019-02-24T06:13:48.931Z,27.68
2019-02-24T06:16:21.507Z,27.68
2019-02-24T06:18:54.330Z,26.97
2019-02-24T06:21:26.845Z,26.89
2019-02-24T06:23:59.340Z,26.34
2019-02-24T06:26:31.791Z,27.12
2019-02-24T06:29:03.844Z,25.97
2019-02-24T06:31:35.904Z,26.18
2019-02-24T06:34:08.333Z,26.24
2019-02-24T06:36:40.838Z,26.07
2019-02-24T06:39:13.882Z,25.79
2019-02-24T06:41:45.905Z,27.01
2019-02-24T06:44:18.269Z,26.99
2019-02-24T06:46:50.877Z,26.70
2019-02-24T06:49:23.345Z,26.98
2019-02-24T06:51:55.896Z,28.22
2019-02-24T06:54:28.464Z,27.47
2019-02-24T06:57:01.285Z,28.09
2019-02-24T06:59:33.815Z,28.09
2019-02-24T07:02:06.413Z,28.11
2019-02-24T07:04:38.890Z,28.45
2019-02-24T07:07:11.962Z,30.56
2019-02-24T07:09:44.482Z,29.89
2019-02-24T07:12:16.933Z,29.45
2019-02-24T07:14:52.887Z,30.14
2019-02-24T07:17:25.069Z,30.87
2019-02-24T07:19:57.883Z,30.50
2019-02-24T07:22:29.893Z,34.37
2019-02-24T07:25:02.343Z,33.32
2019-02-24T07:27:34.828Z,34.22
2019-02-24T07:30:07.463Z,32.79
2019-02-24T07:32:39.836Z,34.34
2019-02-24T07:35:12.891Z,34.05
2019-02-24T07:37:46.397Z,34.31
2019-02-24T07:40:19.005Z,35.02
2019-02-24T07:42:51.329Z,34.37
2019-02-24T07:45:24.283Z,34.74
2019-02-24T07:47:57.378Z,34.57
2019-02-24T07:50:29.907Z,35.45
2019-02-24T07:53:02.005Z,35.12
2019-02-24T07:55:34.333Z,34.61
2019-02-24T07:58:06.874Z,34.71
2019-02-24T08:00:39.060Z,35.85
2019-02-24T08:03:11.875Z,35.41
2019-02-24T08:05:44.334Z,34.85
2019-02-24T08:08:16.922Z,35.27
2019-02-24T08:10:49.322Z,36.10
2019-02-24T08:13:22.596Z,34.81
2019-02-24T08:15:54.940Z,35.72
2019-02-24T08:18:29.632Z,35.72
2019-02-24T08:21:01.907Z,35.06
2019-02-24T08:23:36.322Z,35.06
2019-02-24T08:26:09.070Z,35.23
2019-02-24T08:28:41.324Z,35.49
2019-02-24T08:31:13.852Z,35.75
2019-02-24T08:33:45.876Z,35.51
2019-02-24T08:36:18.098Z,34.69
2019-02-24T08:38:50.866Z,34.12
2019-02-24T08:41:23.103Z,35.38
2019-02-24T08:43:55.644Z,35.09
2019-02-24T08:46:28.474Z,33.43
2019-02-24T08:49:00.866Z,33.43
2019-02-24T08:51:32.877Z,34.99
2019-02-24T08:54:04.900Z,35.82
2019-02-24T08:56:36.841Z,35.29
2019-02-24T08:59:09.318Z,35.00
2019-02-24T09:01:41.906Z,35.96
2019-02-24T09:04:13.904Z,36.34
2019-02-24T09:06:46.116Z,34.90
2019-02-24T09:09:18.884Z,34.53
2019-02-24T09:11:51.416Z,35.13
2019-02-24T09:14:23.870Z,35.40
2019-02-24T09:16:56.370Z,34.96
2019-02-24T09:19:28.983Z,35.30
2019-02-24T09:22:01.549Z,34.11
2019-02-24T09:24:33.835Z,34.04
2019-02-24T09:27:05.869Z,34.04
2019-02-24T09:29:37.915Z,36.05
2019-02-24T09:32:09.868Z,35.74
2019-02-24T09:34:42.316Z,34.72
2019-02-24T09:37:15.324Z,35.19
2019-02-24T09:39:47.837Z,35.14
2019-02-24T09:42:20.334Z,35.38
2019-02-24T09:44:52.909Z,35.07
2019-02-24T09:47:25.689Z,34.97
2019-02-24T09:49:56.959Z,34.72
2019-02-24T09:52:29.865Z,34.57
2019-02-24T09:55:02.098Z,35.35
2019-02-24T09:57:34.604Z,35.66
2019-02-24T10:00:07.896Z,35.07
2019-02-24T10:02:39.988Z,35.07
2019-02-24T10:05:12.334Z,35.05
2019-02-24T10:07:45.038Z,35.44
2019-02-24T10:10:17.323Z,36.62
2019-02-24T14:49:07.270Z,35.00
2019-02-24T14:51:39.103Z,35.26
2019-02-24T14:54:10.786Z,33.09
2019-02-24T14:56:42.641Z,31.07
2019-02-24T14:59:14.358Z,32.88
2019-02-24T15:01:46.309Z,32.88
2019-02-24T15:04:17.974Z,32.45
2019-02-24T15:06:49.869Z,32.26
2019-02-24T15:09:21.654Z,30.99
2019-02-24T15:11:53.449Z,30.74
2019-02-24T15:14:25.308Z,30.74
2019-02-24T15:16:57.016Z,30.45
2019-02-24T15:19:28.773Z,29.92
2019-02-24T15:21:59.491Z,31.18
2019-02-24T15:24:31.309Z,30.44
2019-02-24T15:27:02.882Z,30.77
2019-02-24T15:29:35.844Z,31.71
2019-02-24T15:32:07.811Z,30.96
2019-02-24T15:34:39.762Z,31.23
2019-02-24T15:37:10.683Z,31.23
2019-02-24T15:39:42.364Z,30.59
2019-02-24T15:42:14.661Z,31.24
2019-02-24T15:44:46.420Z,30.70
2019-02-24T15:47:18.493Z,30.70
2019-02-24T15:49:50.311Z,30.79
2019-02-24T15:52:21.877Z,30.79
2019-02-24T15:54:53.749Z,31.47
2019-02-24T15:57:24.615Z,30.56
2019-02-24T15:59:56.339Z,32.72
2019-02-24T16:02:28.053Z,32.72
2019-02-24T16:04:59.757Z,35.05
2019-02-24T16:07:30.770Z,33.87
2019-02-24T16:10:02.503Z,33.72
2019-02-24T16:12:34.349Z,33.51
2019-02-24T16:15:07.781Z,34.83
2019-02-24T16:17:38.627Z,34.14
2019-02-24T16:20:15.901Z,33.53
2019-02-24T16:22:47.436Z,33.53
2019-02-24T16:25:19.615Z,33.07
2019-02-24T16:27:51.629Z,34.30
2019-02-24T16:30:23.334Z,33.31
2019-02-24T16:32:55.067Z,33.31
2019-02-24T16:35:26.754Z,33.54
2019-02-24T16:37:57.520Z,34.95
2019-02-24T16:40:29.309Z,33.94
2019-02-24T16:43:01.414Z,34.81
2019-02-24T16:45:33.030Z,34.89
2019-02-24T16:48:04.775Z,34.30
2019-02-24T16:50:35.768Z,33.91
2019-02-24T16:53:07.758Z,33.97
2019-02-24T16:55:38.456Z,34.68
2019-02-24T16:58:10.312Z,33.50
2019-02-24T17:00:42.421Z,33.69
2019-02-24T17:03:19.954Z,35.31
2019-02-24T17:05:48.300Z,34.02
2019-02-24T17:08:20.084Z,34.72
2019-02-24T17:10:51.762Z,34.57
2019-02-24T17:13:22.460Z,34.32
2019-02-24T17:15:54.300Z,33.82
2019-02-24T17:18:25.857Z,34.34
2019-02-24T17:20:57.770Z,34.10
2019-02-24T17:23:28.492Z,34.36
2019-02-24T17:26:00.314Z,33.52
2019-02-24T17:28:32.315Z,34.10
2019-02-24T17:31:07.099Z,34.00
2019-02-24T17:33:39.299Z,34.00
2019-02-24T17:36:11.062Z,34.44
2019-02-24T17:38:42.973Z,33.79
2019-02-24T17:41:15.301Z,34.11
2019-02-24T17:43:47.296Z,33.73
2019-02-24T17:46:18.877Z,33.78
2019-02-24T17:48:50.765Z,34.59
2019-02-24T17:51:22.716Z,33.10
2019-02-24T17:53:53.478Z,33.38
2019-02-24T17:56:25.309Z,32.59
2019-02-24T17:58:57.301Z,32.37
2019-02-24T18:01:28.870Z,30.99
2019-02-24T18:04:00.364Z,29.85
2019-02-24T18:06:32.057Z,29.10
2019-02-24T18:09:04.294Z,28.98
2019-02-24T18:11:36.301Z,28.64
2019-02-24T18:14:07.862Z,28.16
2019-02-24T18:16:40.118Z,27.42
2019-02-24T18:19:11.798Z,28.06
2019-02-24T18:21:43.410Z,28.05
2019-02-24T18:24:15.418Z,27.90
2019-02-24T18:26:48.765Z,28.10
2019-02-24T18:29:19.480Z,27.73
2019-02-24T18:31:51.304Z,28.79
2019-02-24T18:34:23.803Z,28.59
2019-02-24T18:36:55.377Z,28.96
2019-02-24T18:39:27.307Z,28.56
2019-02-24T18:41:58.849Z,29.28
2019-02-24T18:44:31.547Z,29.08
2019-02-24T18:47:03.353Z,29.25
2019-02-24T18:49:36.053Z,29.25
2019-02-24T18:52:07.782Z,29.72
2019-02-24T18:54:38.649Z,29.90
2019-02-24T18:57:10.362Z,29.01
2019-02-24T18:59:42.057Z,29.01
2019-02-24T19:02:14.741Z,31.23
2019-02-24T19:04:46.230Z,32.88
2019-02-24T19:07:18.349Z,33.83
2019-02-24T19:09:50.017Z,32.74
2019-02-24T19:12:21.765Z,34.26
2019-02-24T19:14:53.752Z,33.15
2019-02-24T19:17:25.878Z,34.94
2019-02-24T19:19:57.857Z,34.25
2019-02-24T19:22:29.741Z,34.30
2019-02-24T19:25:01.258Z,34.43
2019-02-24T19:27:33.057Z,34.48
2019-02-24T19:30:04.768Z,34.49
2019-02-24T19:32:35.575Z,34.36
2019-02-24T19:35:08.407Z,34.86
2019-02-24T19:37:54.857Z,34.86
2019-02-24T19:40:26.418Z,34.24
2019-02-24T19:42:58.297Z,34.70
2019-02-24T19:45:30.263Z,34.37
2019-02-24T19:48:02.301Z,35.39
2019-02-24T19:50:33.852Z,34.98
2019-02-24T19:53:05.899Z,33.74
2019-02-24T19:55:37.773Z,34.55
2019-02-24T19:58:09.375Z,34.79
2019-02-24T20:00:41.582Z,33.77
2019-02-24T20:03:13.379Z,35.13
2019-02-24T20:05:47.311Z,35.13
2019-02-24T20:08:19.066Z,34.95
2019-02-24T20:10:50.747Z,35.47
2019-02-24T20:13:21.522Z,34.26
2019-02-24T20:15:53.634Z,34.21
2019-02-24T20:18:31.908Z,34.45
2019-02-24T20:21:04.629Z,34.45
2019-02-24T20:23:36.798Z,34.57
2019-02-24T20:26:08.752Z,34.57
2019-02-24T20:28:40.122Z,34.26
2019-02-24T20:34:15.293Z,34.75
2019-02-24T20:36:46.881Z,35.01
2019-02-24T20:39:19.308Z,34.97
2019-02-24T20:41:51.299Z,33.82
2019-02-24T20:44:24.014Z,34.43
2019-02-24T20:46:55.789Z,35.15
2019-02-24T20:49:27.806Z,35.00
2019-02-24T20:51:59.855Z,35.13
2019-02-24T20:54:31.823Z,35.26
2019-02-24T20:57:05.686Z,34.30
2019-02-24T20:59:37.550Z,35.32
2019-02-24T21:02:09.416Z,34.21
2019-02-24T21:04:41.753Z,34.21
2019-02-24T21:07:12.595Z,35.73
2019-02-24T21:09:43.439Z,34.94
2019-02-24T21:12:15.423Z,34.37
2019-02-24T21:14:47.762Z,34.66
2019-02-24T21:17:19.262Z,35.72
2019-02-24T21:19:51.024Z,35.50
2019-02-24T21:22:22.760Z,35.70
2019-02-24T21:24:54.589Z,35.72
2019-02-24T21:27:26.423Z,34.40
2019-02-24T21:29:58.301Z,35.46
2019-02-24T21:32:29.844Z,35.51
2019-02-24T21:35:01.594Z,34.76
2019-02-24T21:37:33.651Z,36.02
2019-02-24T21:40:09.303Z,35.85
2019-02-24T21:42:44.448Z,35.85
2019-02-24T21:45:19.489Z,36.17
2019-02-24T21:47:51.304Z,35.59
2019-02-24T21:50:22.898Z,35.94
2019-02-24T21:52:55.306Z,35.06
2019-02-24T21:55:27.031Z,35.89
2019-02-24T21:57:58.785Z,35.92
2019-02-24T22:00:30.762Z,35.34
2019-02-24T22:03:01.727Z,36.09
2019-02-24T22:05:32.616Z,36.29
2019-02-24T22:08:04.410Z,36.08
2019-02-24T22:10:36.316Z,36.08
2019-02-24T22:13:07.866Z,35.41
2019-02-24T22:15:39.853Z,35.98
2019-02-24T22:18:11.586Z,35.84
2019-02-24T22:20:43.315Z,36.12
2019-02-24T22:23:15.316Z,36.12
2019-02-24T22:25:46.909Z,36.20
2019-02-24T22:28:18.412Z,35.64
2019-02-24T22:30:50.078Z,36.40
2019-02-24T22:33:21.787Z,36.01
2019-02-24T22:35:52.465Z,35.53
2019-02-24T22:38:24.318Z,35.93
2019-02-24T22:40:55.840Z,36.03
2019-02-24T22:43:27.702Z,36.17
2019-02-24T22:45:58.493Z,36.27
2019-02-24T22:48:30.795Z,36.27
2019-02-24T22:51:02.557Z,36.33
2019-02-24T22:53:34.317Z,36.60
2019-02-24T22:56:05.831Z,36.52
2019-02-24T22:58:38.302Z,35.46
2019-02-24T23:01:21.374Z,37.04
2019-02-24T23:03:53.040Z,36.87
2019-02-24T23:06:24.771Z,36.88
2019-02-24T23:08:55.512Z,37.24
2019-02-24T23:11:27.425Z,36.97
2019-02-24T23:13:59.040Z,36.97
2019-02-24T23:16:30.780Z,36.98
2019-02-24T23:19:01.484Z,37.08
2019-02-24T23:21:33.307Z,36.86
2019-02-24T23:24:04.878Z,38.04
2019-02-24T23:26:37.310Z,37.45
2019-02-24T23:29:08.890Z,37.27
2019-02-24T23:31:40.420Z,37.66
2019-02-24T23:34:12.012Z,37.95
2019-02-24T23:36:43.834Z,37.88
2019-02-24T23:39:17.823Z,37.60
2019-02-24T23:41:49.778Z,37.61
2019-02-24T23:44:21.744Z,36.79
2019-02-24T23:46:52.479Z,37.23
2019-02-24T23:49:24.609Z,37.38
2019-02-24T23:51:56.753Z,37.21
2019-02-24T23:54:27.454Z,37.21
2019-02-24T23:56:59.573Z,37.83
2019-02-24T23:59:31.321Z,36.97
